createdAt,value
2023-06-01T00:00:39.406Z,55.23
2023-06-01T00:06:02.050Z,55.59
2023-06-01T00:11:04.757Z,55.72
2023-06-01T00:16:07.567Z,56.31
2023-06-01T00:21:10.538Z,56.82
2023-06-01T00:26:13.194Z,57.26
2023-06-01T00:31:15.884Z,57.44
2023-06-01T00:36:18.549Z,57.95
2023-06-01T00:41:21.829Z,58.30
2023-06-01T00:46:24.857Z,58.76
2023-06-01T00:51:27.646Z,58.95
2023-06-01T00:56:32.502Z,59.56
2023-06-01T01:01:37.500Z,60.45
2023-06-01T01:07:09.160Z,60.70
2023-06-01T01:12:27.712Z,60.97
2023-06-01T01:17:34.099Z,61.24
2023-06-01T01:22:39.498Z,61.57
2023-06-01T01:28:03.751Z,61.98
2023-06-01T01:33:07.876Z,62.24
2023-06-01T01:38:10.499Z,62.38
2023-06-01T01:43:13.311Z,62.49
2023-06-01T01:48:28.391Z,62.82
2023-06-01T01:53:31.519Z,62.74
2023-06-01T01:58:34.903Z,63.38
2023-06-01T02:03:37.605Z,63.00
2023-06-01T02:08:40.471Z,63.86
2023-06-01T02:13:43.018Z,64.39
2023-06-01T02:18:46.798Z,64.28
2023-06-01T02:23:49.367Z,64.72
2023-06-01T02:28:51.920Z,64.27
2023-06-01T02:33:54.624Z,64.29
2023-06-01T02:38:57.450Z,64.50
2023-06-01T02:44:00.275Z,64.91
2023-06-01T02:49:02.922Z,64.94
2023-06-01T02:54:05.494Z,64.82
2023-06-01T02:59:08.033Z,65.00
2023-06-01T03:04:13.299Z,64.72
2023-06-01T03:09:16.664Z,64.68
2023-06-01T03:14:19.455Z,64.42
2023-06-01T03:19:22.037Z,64.42
2023-06-01T03:24:28.610Z,64.45
2023-06-01T03:29:31.306Z,64.46
2023-06-01T03:34:34.395Z,64.25
2023-06-01T03:39:37.395Z,64.50
2023-06-01T03:44:42.839Z,64.67
2023-06-01T03:49:45.390Z,64.35
2023-06-01T03:54:47.948Z,64.43
2023-06-01T03:59:51.765Z,64.37
2023-06-01T04:04:54.366Z,65.04
2023-06-01T04:09:57.030Z,65.37
2023-06-01T04:14:59.646Z,65.21
2023-06-01T04:20:02.166Z,65.12
2023-06-01T04:25:12.630Z,64.66
2023-06-01T04:30:16.943Z,65.04
2023-06-01T04:35:19.602Z,64.50
2023-06-01T04:40:22.222Z,64.21
2023-06-01T04:45:26.726Z,63.33
2023-06-01T04:50:30.088Z,62.54
2023-06-01T04:55:32.969Z,62.30
2023-06-01T05:00:36.034Z,62.26
2023-06-01T05:05:41.242Z,62.33
2023-06-01T05:10:44.141Z,61.78
2023-06-01T05:15:46.762Z,61.75
2023-06-01T05:20:49.359Z,61.80
2023-06-01T05:25:52.115Z,62.34
2023-06-01T05:30:55.421Z,62.14
2023-06-01T05:35:58.183Z,61.65
2023-06-01T05:41:00.945Z,61.37
2023-06-01T05:46:04.364Z,61.01
2023-06-01T05:51:06.994Z,60.53
2023-06-01T05:56:09.726Z,60.09
2023-06-01T06:01:12.408Z,59.81
2023-06-01T06:06:15.058Z,59.10
2023-06-01T06:11:17.812Z,58.86
2023-06-01T06:16:20.710Z,57.85
2023-06-01T06:21:23.522Z,56.43
2023-06-01T06:26:29.884Z,55.35
2023-06-01T06:31:32.508Z,54.23
2023-06-01T06:36:35.101Z,52.68
2023-06-01T06:41:37.685Z,50.94
2023-06-01T06:46:40.525Z,50.55
2023-06-01T06:51:43.139Z,50.47
2023-06-01T06:56:45.833Z,50.45
2023-06-01T07:01:48.960Z,50.56
2023-06-01T07:06:52.927Z,50.10
2023-06-01T07:11:55.730Z,49.63
2023-06-01T07:16:58.375Z,48.72
2023-06-01T07:22:01.626Z,48.37
2023-06-01T07:27:04.692Z,47.91
2023-06-01T07:32:07.547Z,47.62
2023-06-01T07:37:17.687Z,48.01
2023-06-01T07:42:21.697Z,46.64
2023-06-01T07:47:26.227Z,46.20
2023-06-01T07:52:28.931Z,45.62
2023-06-01T07:57:31.757Z,45.62
2023-06-01T08:02:34.548Z,44.14
2023-06-01T08:07:39.032Z,43.69
2023-06-01T08:12:43.779Z,43.90
2023-06-01T08:17:46.723Z,42.98
2023-06-01T08:22:50.576Z,42.13
2023-06-01T08:27:53.809Z,42.89
2023-06-01T08:32:56.500Z,42.49
2023-06-01T08:37:59.133Z,42.19
2023-06-01T08:43:20.630Z,40.77
2023-06-01T08:48:25.520Z,40.41
2023-06-01T08:53:29.865Z,39.88
2023-06-01T08:58:32.953Z,38.11
2023-06-01T09:03:35.705Z,39.01
2023-06-01T09:08:38.423Z,37.90
2023-06-01T09:13:42.622Z,36.91
2023-06-01T09:18:54.975Z,35.81
2023-06-01T09:24:18.191Z,36.03
2023-06-01T09:29:21.094Z,36.60
2023-06-01T09:34:23.696Z,36.73
2023-06-01T09:39:26.998Z,36.48
2023-06-01T09:44:34.214Z,36.58
2023-06-01T09:49:39.837Z,36.30
2023-06-01T09:54:47.394Z,36.33
2023-06-01T09:59:50.193Z,36.01
2023-06-01T10:04:59.010Z,35.74
2023-06-01T10:10:04.754Z,35.72
2023-06-01T10:15:20.521Z,35.71
2023-06-01T10:20:34.292Z,35.95
2023-06-01T10:25:44.376Z,34.57
2023-06-01T10:30:47.323Z,34.38
2023-06-01T10:35:50.413Z,34.74
2023-06-01T10:40:53.407Z,34.77
2023-06-01T10:45:56.200Z,34.61
2023-06-01T10:51:19.458Z,34.63
2023-06-01T10:56:24.958Z,34.53
2023-06-01T11:01:28.109Z,34.73
2023-06-01T11:06:34.818Z,34.93
2023-06-01T11:11:49.916Z,34.63
2023-06-01T11:16:53.931Z,34.32
2023-06-01T11:22:05.039Z,33.49
2023-06-01T11:27:10.305Z,32.30
2023-06-01T11:32:15.032Z,32.75
2023-06-01T11:37:19.548Z,32.83
2023-06-01T11:42:23.587Z,32.90
2023-06-01T11:47:31.046Z,32.34
2023-06-01T11:52:35.574Z,32.92
2023-06-01T11:57:42.988Z,32.42
2023-06-01T12:02:45.903Z,31.67
2023-06-01T12:07:54.344Z,30.75
2023-06-01T12:12:57.117Z,29.91
2023-06-01T12:18:00.624Z,29.16
2023-06-01T12:23:21.662Z,28.98
2023-06-01T12:28:27.637Z,29.74
2023-06-01T12:33:36.893Z,30.26
2023-06-01T12:38:53.181Z,29.80
2023-06-01T12:43:57.046Z,30.37
2023-06-01T12:49:18.972Z,30.76
2023-06-01T12:54:21.691Z,30.15
2023-06-01T12:59:24.443Z,29.84
2023-06-01T13:04:27.450Z,29.39
2023-06-01T13:09:30.131Z,28.91
2023-06-01T13:14:32.715Z,28.92
2023-06-01T13:19:35.611Z,28.52
2023-06-01T13:29:43.727Z,28.05
2023-06-01T13:34:46.385Z,28.26
2023-06-01T13:39:49.120Z,28.58
2023-06-01T13:44:52.031Z,29.34
2023-06-01T13:49:54.799Z,29.52
2023-06-01T13:54:58.138Z,28.18
2023-06-01T14:00:00.909Z,26.53
2023-06-01T14:05:08.141Z,26.72
2023-06-01T14:10:14.755Z,25.69
2023-06-01T14:15:17.505Z,24.92
2023-06-01T14:20:20.507Z,23.63
2023-06-01T14:25:23.186Z,22.60
2023-06-01T14:30:27.620Z,22.39
2023-06-01T14:35:30.582Z,22.29
2023-06-01T14:40:33.184Z,22.41
2023-06-01T14:45:35.995Z,21.97
2023-06-01T14:50:38.641Z,21.56
2023-06-01T14:55:41.978Z,21.17
2023-06-01T15:00:44.606Z,21.25
2023-06-01T15:05:47.243Z,21.71
2023-06-01T15:10:49.893Z,22.21
2023-06-01T15:15:52.409Z,24.17
2023-06-01T15:20:55.007Z,24.84
2023-06-01T15:25:57.669Z,25.41
2023-06-01T15:31:00.569Z,25.85
2023-06-01T15:36:03.586Z,25.25
2023-06-01T15:41:07.487Z,25.70
2023-06-01T15:46:10.172Z,26.65
2023-06-01T15:51:12.709Z,27.37
2023-06-01T15:56:16.477Z,28.03
2023-06-01T16:01:29.177Z,28.39
2023-06-01T16:06:32.688Z,28.51
2023-06-01T16:11:35.529Z,28.65
2023-06-01T16:16:38.391Z,28.99
2023-06-01T16:21:41.107Z,29.47
2023-06-01T16:26:43.990Z,30.39
2023-06-01T16:31:47.008Z,31.86
2023-06-01T16:36:49.592Z,34.07
2023-06-01T16:41:52.537Z,36.51
2023-06-01T16:46:55.368Z,38.47
2023-06-01T16:51:57.979Z,38.18
2023-06-01T16:57:02.117Z,36.54
2023-06-01T17:02:05.114Z,34.95
2023-06-01T17:07:07.973Z,34.30
2023-06-01T17:12:15.806Z,36.46
2023-06-01T17:17:20.708Z,39.42
2023-06-01T17:22:24.047Z,42.30
2023-06-01T17:27:27.035Z,44.77
2023-06-01T17:32:29.877Z,47.04
2023-06-01T17:37:32.924Z,48.97
2023-06-01T17:42:35.971Z,50.05
2023-06-01T17:47:38.958Z,50.73
2023-06-01T17:52:41.900Z,52.03
2023-06-01T17:57:44.727Z,53.70
2023-06-01T18:02:47.724Z,55.34
2023-06-01T18:07:50.608Z,56.89
2023-06-01T18:12:53.540Z,58.01
2023-06-01T18:17:56.555Z,59.61
2023-06-01T18:22:59.435Z,61.21
2023-06-01T18:28:02.860Z,62.10
2023-06-01T18:33:06.724Z,63.54
2023-06-01T18:38:10.697Z,64.83
2023-06-01T18:43:14.943Z,65.92
2023-06-01T18:48:24.901Z,66.19
2023-06-01T18:53:28.027Z,66.99
2023-06-01T18:58:30.964Z,67.69
2023-06-01T19:03:34.945Z,67.53
2023-06-01T19:08:38.221Z,68.35
2023-06-01T19:13:43.800Z,69.16
2023-06-01T19:18:51.716Z,69.80
2023-06-01T19:23:55.968Z,69.87
2023-06-01T19:29:11.604Z,71.27
2023-06-01T19:34:14.954Z,71.90
2023-06-01T19:39:39.290Z,72.39
2023-06-01T19:44:45.471Z,72.67
2023-06-01T19:49:51.477Z,72.45
2023-06-01T19:54:57.080Z,72.49
2023-06-01T20:00:00.008Z,72.68
2023-06-01T20:05:06.993Z,73.17
2023-06-01T20:10:20.191Z,73.39
2023-06-01T20:15:29.689Z,73.92
2023-06-01T20:20:37.796Z,73.58
2023-06-01T20:25:42.702Z,73.65
2023-06-01T20:31:06.347Z,74.39
2023-06-01T20:36:09.853Z,74.70
2023-06-01T20:41:14.533Z,74.85
2023-06-01T20:46:17.464Z,74.60
2023-06-01T20:51:34.776Z,74.02
2023-06-01T20:56:42.664Z,74.48
2023-06-01T21:01:48.411Z,74.56
2023-06-01T21:06:51.824Z,74.62
2023-06-01T21:11:56.940Z,75.35
2023-06-01T21:17:05.170Z,75.62
2023-06-01T21:22:07.906Z,75.67
2023-06-01T21:27:10.541Z,75.84
2023-06-01T21:32:13.312Z,76.75
2023-06-01T21:37:15.874Z,76.42
2023-06-01T21:42:19.254Z,77.05
2023-06-01T21:47:22.085Z,77.30
2023-06-01T21:52:24.667Z,77.50
2023-06-01T21:57:27.456Z,77.02
2023-06-01T22:02:30.081Z,78.46
2023-06-01T22:07:32.814Z,78.67
2023-06-01T22:12:36.776Z,78.81
2023-06-01T22:17:39.570Z,78.96
2023-06-01T22:22:42.838Z,79.24
2023-06-01T22:27:45.535Z,80.01
2023-06-01T22:32:48.165Z,79.71
2023-06-01T22:37:50.906Z,79.00
2023-06-01T22:42:54.124Z,79.13
2023-06-01T22:47:56.817Z,79.76
2023-06-01T22:53:00.561Z,79.40
2023-06-01T22:58:03.145Z,79.98
2023-06-01T23:03:06.184Z,79.98
2023-06-01T23:08:20.421Z,79.91
2023-06-01T23:13:24.242Z,80.62
2023-06-01T23:18:29.816Z,80.23
2023-06-01T23:23:34.110Z,80.83
2023-06-01T23:29:05.012Z,80.63
2023-06-01T23:34:07.762Z,80.09
2023-06-01T23:39:13.135Z,80.08
2023-06-01T23:44:16.593Z,79.81
2023-06-01T23:49:19.361Z,79.13
2023-06-01T23:54:22.052Z,79.06
2023-06-01T23:59:24.650Z,78.80
